Time;durP1;ratioP1;P1;durP2;ratioP2;P2;SDS_P1;SDS_P2;PMS_P1;PMS_P2;Temp;Humidity;BMP_temperature;BMP_pressure;BME280_temperature;BME280_humidity;BME280_pressure;Samples;Min_cycle;Max_cycle;Signal;HPM_P1;HPM_P2
2024/03/18 00:02:15;;;;;;;;;;;;;;;9.89;50.56;101320.94;4977380;27;98839;-77
2024/03/18 00:04:41;;;;;;;;;;;;;;;9.88;50.44;101321.22;4966128;27;98265;-72
2024/03/18 00:07:07;;;;;;;;;;;;;;;9.87;50.29;101323.09;4967865;27;122286;-72
2024/03/18 00:09:33;;;;;;;;;;;;;;;9.87;49.99;101319.59;4983535;27;97961;-73
2024/03/18 00:11:59;;;;;;;;;;;;;;;9.86;50.56;101315.22;4964328;27;99738;-76
2024/03/18 00:14:25;;;;;;;;;;;;;;;9.82;50.00;101317.59;4962049;27;98793;-72
2024/03/18 00:16:51;;;;;;;;;;;;;;;9.82;49.87;101313.03;4966741;27;98143;-76
2024/03/18 00:19:17;;;;;;;;;;;;;;;9.83;49.99;101319.25;4963280;27;98346;-72
2024/03/18 00:21:44;;;;;;;;;;;;;;;9.81;49.85;101316.78;4992096;27;98149;-71
2024/03/18 00:24:10;;;;;;;;;;;;;;;9.81;50.50;101319.47;4980365;27;97907;-71
2024/03/18 00:26:36;;;;;;;;;;;;;;;9.79;50.39;101315.41;4962950;27;97882;-77
2024/03/18 00:29:03;;;;;;;;;;;;;;;9.80;50.44;101314.34;4980457;27;117297;-76
2024/03/18 00:31:29;;;;;;;;;;;;;;;9.79;49.96;101310.00;4964963;27;99985;-72
2024/03/18 00:33:55;;;;;;;;;;;;;;;9.79;50.61;101318.09;4981847;27;98591;-78
2024/03/18 00:36:21;;;;;;;;;;;;;;;9.77;50.11;101310.25;4965916;27;107217;-72
2024/03/18 00:38:48;;;;;;;;;;;;;;;9.76;50.54;101308.59;4962624;27;121366;-71
2024/03/18 00:44:02;;;;;;;;;;;;;;;9.74;50.58;101310.72;4983211;27;98149;-72
2024/03/18 00:46:28;;;;;;;;;;;;;;;9.74;50.22;101315.28;4981225;27;98114;-76
2024/03/18 00:48:54;;;;;;;;;;;;;;;9.72;50.51;101309.34;4981329;27;98017;-72
2024/03/18 00:51:21;;;;;;;;;;;;;;;9.71;50.54;101316.59;4980701;27;99631;-72
2024/03/18 00:53:47;;;;;;;;;;;;;;;9.70;50.22;101306.06;4986850;27;99320;-72
2024/03/18 00:56:13;;;;;;;;;;;;;;;9.69;50.51;101310.63;4999104;27;98426;-71
2024/03/18 00:58:42;;;;;;;;;;;;;;;9.67;50.34;101304.69;4990544;27;127225;-76
2024/03/18 01:01:08;;;;;;;;;;;;;;;9.66;50.17;101300.34;4965316;27;99220;-76
2024/03/18 01:03:34;;;;;;;;;;;;;;;9.64;50.02;101290.88;4986300;27;97952;-76
2024/03/18 01:06:00;;;;;;;;;;;;;;;9.65;50.64;101284.44;4966334;27;98299;-71
2024/03/18 01:08:26;;;;;;;;;;;;;;;9.61;50.60;101284.09;4969345;27;99292;-72
2024/03/18 01:10:52;;;;;;;;;;;;;;;9.61;49.96;101278.72;4965910;27;98364;-71
2024/03/18 01:13:18;;;;;;;;;;;;;;;9.61;50.74;101283.28;4977488;27;97958;-76
2024/03/18 01:15:44;;;;;;;;;;;;;;;9.59;50.15;101270.06;4980297;27;98087;-71
2024/03/18 01:18:10;;;;;;;;;;;;;;;9.57;50.50;101269.50;4965649;27;98592;-76
2024/03/18 01:20:36;;;;;;;;;;;;;;;9.56;50.33;101268.69;4980964;27;130476;-76
2024/03/18 01:23:03;;;;;;;;;;;;;;;9.55;50.49;101267.06;4965023;27;116088;-76
2024/03/18 01:25:29;;;;;;;;;;;;;;;9.54;50.52;101273.47;4980146;27;98220;-76
2024/03/18 01:27:55;;;;;;;;;;;;;;;9.53;50.80;101274.53;4967641;27;98013;-76
2024/03/18 01:30:22;;;;;;;;;;;;;;;9.51;50.47;101268.59;4966006;27;107212;-72
2024/03/18 01:32:49;;;;;;;;;;;;;;;9.51;50.13;101271.28;4983986;27;98169;-71
2024/03/18 01:35:15;;;;;;;;;;;;;;;9.49;50.35;101264.50;4966577;27;98639;-71
2024/03/18 01:37:43;;;;;;;;;;;;;;;9.48;50.41;101266.38;4968499;27;98116;-76
2024/03/18 01:40:12;;;;;;;;;;;;;;;9.47;49.80;101270.13;4975032;27;101479;-76
2024/03/18 01:42:39;;;;;;;;;;;;;;;9.46;50.50;101270.34;4968326;27;97984;-71
2024/03/18 01:45:05;;;;;;;;;;;;;;;9.46;50.35;101273.03;4981566;27;98012;-71
2024/03/18 01:47:31;;;;;;;;;;;;;;;9.44;50.02;101270.59;4961125;27;98315;-76
2024/03/18 01:49:57;;;;;;;;;;;;;;;9.42;50.04;101267.31;4965857;27;113603;-76
2024/03/18 01:52:24;;;;;;;;;;;;;;;9.42;49.99;101261.13;4963208;27;100900;-72
2024/03/18 01:54:50;;;;;;;;;;;;;;;9.41;50.34;101254.13;4978354;27;98036;-76
2024/03/18 01:57:16;;;;;;;;;;;;;;;9.40;50.40;101257.88;4974712;27;99271;-76
2024/03/18 01:59:43;;;;;;;;;;;;;;;9.40;50.51;101257.88;4961382;27;108255;-72
2024/03/18 02:02:10;;;;;;;;;;;;;;;9.40;50.47;101257.88;4977645;27;98190;-72
2024/03/18 02:04:37;;;;;;;;;;;;;;;9.38;50.56;101251.91;4965032;27;97869;-71
2024/03/18 02:07:18;;;;;;;;;;;;;;;9.37;50.04;101261.84;4984830;27;98145;-71
2024/03/18 02:09:44;;;;;;;;;;;;;;;9.36;50.67;101248.66;4965288;27;98233;-72
2024/03/18 02:12:11;;;;;;;;;;;;;;;9.35;49.95;101253.19;4961566;27;99077;-72
2024/03/18 02:14:37;;;;;;;;;;;;;;;9.34;50.31;101254.25;4964406;27;98122;-75
2024/03/18 02:17:06;;;;;;;;;;;;;;;9.33;50.52;101247.25;4963917;27;106940;-76
2024/03/18 02:19:32;;;;;;;;;;;;;;;9.32;50.28;101249.13;5000843;27;98062;-76
2024/03/18 02:22:03;;;;;;;;;;;;;;;9.30;50.39;101248.53;5000835;27;127793;-75
2024/03/18 02:24:29;;;;;;;;;;;;;;;9.30;50.36;101240.44;5001346;27;98231;-71
2024/03/18 02:26:55;;;;;;;;;;;;;;;9.30;50.29;101251.22;4980988;27;98312;-76
2024/03/18 02:29:21;;;;;;;;;;;;;;;9.30;50.53;101237.75;4981615;27;99053;-71
2024/03/18 02:31:46;;;;;;;;;;;;;;;9.28;49.89;101233.69;4996826;27;104308;-76
2024/03/18 02:34:13;;;;;;;;;;;;;;;9.28;50.77;101233.69;4981106;27;113863;-71
2024/03/18 02:36:39;;;;;;;;;;;;;;;9.27;50.09;101232.84;4978941;27;100143;-76
2024/03/18 02:39:07;;;;;;;;;;;;;;;9.27;50.38;101226.66;4967997;27;98249;-71
2024/03/18 02:41:33;;;;;;;;;;;;;;;9.25;50.76;101226.91;4969643;27;98052;-72
2024/03/18 02:43:59;;;;;;;;;;;;;;;9.25;50.30;101226.09;4968130;27;107693;-76
2024/03/18 02:46:25;;;;;;;;;;;;;;;9.24;50.06;101217.22;4983333;27;98183;-71
2024/03/18 02:48:51;;;;;;;;;;;;;;;9.24;50.15;101221.78;4980807;27;98117;-71
2024/03/18 02:51:18;;;;;;;;;;;;;;;9.23;50.44;101220.13;4983853;27;103055;-71
2024/03/18 02:53:44;;;;;;;;;;;;;;;9.23;50.61;101217.44;4986256;27;97912;-76
2024/03/18 02:56:10;;;;;;;;;;;;;;;9.23;49.74;101214.75;4969447;27;101252;-71
2024/03/18 02:58:36;;;;;;;;;;;;;;;9.22;50.32;101211.25;5001797;27;109498;-76
2024/03/18 03:01:02;;;;;;;;;;;;;;;9.21;50.31;101212.31;4980098;27;116251;-76
2024/03/18 03:03:28;;;;;;;;;;;;;;;9.21;50.30;101211.50;4982416;27;98272;-75
2024/03/18 03:05:54;;;;;;;;;;;;;;;9.20;49.98;101212.56;4977475;27;98129;-76
2024/03/18 03:08:22;;;;;;;;;;;;;;;9.20;50.14;101213.38;4978574;27;127963;-76
2024/03/18 03:10:48;;;;;;;;;;;;;;;9.18;50.09;101214.66;4979315;27;98035;-72
2024/03/18 03:13:14;;;;;;;;;;;;;;;9.18;50.13;101211.97;4984456;27;98194;-71
2024/03/18 03:15:40;;;;;;;;;;;;;;;9.17;50.28;101208.47;4979607;27;101179;-75
2024/03/18 03:18:06;;;;;;;;;;;;;;;9.17;50.72;101207.66;4972237;27;100168;-76
2024/03/18 03:20:32;;;;;;;;;;;;;;;9.16;50.52;101206.03;4948697;27;125415;-70
2024/03/18 03:22:58;;;;;;;;;;;;;;;9.15;50.59;101213.25;4944978;27;98189;-76
2024/03/18 03:25:25;;;;;;;;;;;;;;;9.15;50.64;101201.69;4963167;27;98186;-75
2024/03/18 03:27:51;;;;;;;;;;;;;;;9.14;50.07;101197.38;4947492;27;97976;-71
2024/03/18 03:30:17;;;;;;;;;;;;;;;9.14;50.04;101200.06;4940157;27;98988;-71
2024/03/18 03:32:43;;;;;;;;;;;;;;;9.12;50.41;101197.63;4986566;27;97945;-71
2024/03/18 03:35:09;;;;;;;;;;;;;;;9.10;50.25;101194.34;4983185;27;100202;-76
2024/03/18 03:37:36;;;;;;;;;;;;;;;9.10;50.62;101195.16;4967349;27;98105;-71
2024/03/18 03:40:03;;;;;;;;;;;;;;;9.09;49.67;101201.59;4963675;28;98324;-71
2024/03/18 03:42:29;;;;;;;;;;;;;;;9.09;50.22;101200.78;4971166;27;98336;-75
2024/03/18 03:44:55;;;;;;;;;;;;;;;9.07;49.99;101198.31;4973466;27;98358;-75
2024/03/18 03:47:21;;;;;;;;;;;;;;;9.06;49.91;101199.38;4941010;27;101155;-71
2024/03/18 03:49:47;;;;;;;;;;;;;;;9.05;49.62;101187.00;4964282;27;99718;-71
2024/03/18 03:52:13;;;;;;;;;;;;;;;9.05;50.73;101194.25;4941055;27;98200;-75
2024/03/18 03:54:39;;;;;;;;;;;;;;;9.04;50.36;101187.25;5000686;27;104634;-75
2024/03/18 03:57:05;;;;;;;;;;;;;;;9.03;50.67;101183.72;4961005;27;100077;-76
2024/03/18 03:59:31;;;;;;;;;;;;;;;9.02;50.20;101183.97;4964837;27;102179;-71
2024/03/18 04:01:57;;;;;;;;;;;;;;;9.01;50.14;101188.53;4963830;27;123061;-71
2024/03/18 04:04:23;;;;;;;;;;;;;;;9.01;50.14;101198.47;4963188;27;99442;-71
2024/03/18 04:06:49;;;;;;;;;;;;;;;8.99;50.57;101193.31;4952739;27;99399;-76
2024/03/18 04:09:15;;;;;;;;;;;;;;;8.98;50.04;101183.63;4947980;27;114451;-76
2024/03/18 04:11:41;;;;;;;;;;;;;;;8.97;49.80;101187.38;4975563;27;108871;-71
2024/03/18 04:14:07;;;;;;;;;;;;;;;8.96;50.07;101188.44;4958339;27;98821;-71
2024/03/18 04:16:33;;;;;;;;;;;;;;;8.95;49.74;101183.28;4969725;27;118860;-75
2024/03/18 04:19:00;;;;;;;;;;;;;;;8.94;50.02;101187.84;4981844;27;98943;-76
2024/03/18 04:21:26;;;;;;;;;;;;;;;8.93;50.18;101191.59;4949865;27;105287;-75
2024/03/18 04:23:52;;;;;;;;;;;;;;;8.93;49.69;101185.41;4964596;27;98182;-71
2024/03/18 04:26:18;;;;;;;;;;;;;;;8.91;50.14;101188.31;4979991;27;128435;-76
2024/03/18 04:28:44;;;;;;;;;;;;;;;8.90;50.32;101184.00;4990459;27;98302;-70
2024/03/18 04:31:11;;;;;;;;;;;;;;;8.89;50.42;101189.63;4991203;27;98023;-76
2024/03/18 04:33:40;;;;;;;;;;;;;;;8.89;50.22;101181.56;4953381;27;99852;-72
2024/03/18 04:36:08;;;;;;;;;;;;;;;8.89;50.13;101186.94;4963330;28;100707;-75
2024/03/18 04:38:34;;;;;;;;;;;;;;;8.86;49.85;101188.22;4934808;27;97916;-71
2024/03/18 04:41:01;;;;;;;;;;;;;;;8.86;49.82;101185.53;4946658;28;101494;-71
2024/03/18 04:43:27;;;;;;;;;;;;;;;8.84;50.40;101180.41;4954151;27;98884;-71
2024/03/18 04:45:53;;;;;;;;;;;;;;;8.84;49.79;101182.25;4983213;27;113856;-71
2024/03/18 04:48:19;;;;;;;;;;;;;;;8.83;49.76;101183.31;4968005;27;98121;-71
2024/03/18 04:50:49;;;;;;;;;;;;;;;8.82;50.27;101182.50;4966682;27;98361;-76
2024/03/18 04:53:15;;;;;;;;;;;;;;;8.82;50.34;101187.06;4966593;27;98314;-70
2024/03/18 04:55:42;;;;;;;;;;;;;;;8.80;50.23;101183.78;4957418;27;100065;-75
2024/03/18 04:58:08;;;;;;;;;;;;;;;8.81;50.53;101185.44;4948738;27;99416;-71
2024/03/18 05:00:34;;;;;;;;;;;;;;;8.80;50.46;101189.16;4947956;27;97861;-71
2024/03/18 05:03:00;;;;;;;;;;;;;;;8.81;50.13;101190.81;4980024;27;98333;-71
2024/03/18 05:05:26;;;;;;;;;;;;;;;8.80;50.35;101194.53;4991808;27;98123;-76
2024/03/18 05:07:54;;;;;;;;;;;;;;;8.81;50.12;101191.63;4947808;27;98094;-71
2024/03/18 05:10:26;;;;;;;;;;;;;;;8.81;50.01;101188.13;4961119;28;97995;-71
2024/03/18 05:12:59;;;;;;;;;;;;;;;8.81;50.15;101188.13;4978270;27;98071;-75
2024/03/18 05:15:25;;;;;;;;;;;;;;;8.81;50.07;101182.75;4943949;27;98165;-71
2024/03/18 05:17:51;;;;;;;;;;;;;;;8.81;49.78;101188.13;4968987;27;97904;-76
2024/03/18 05:20:17;;;;;;;;;;;;;;;8.81;49.74;101185.44;4955849;27;98204;-71
2024/03/18 05:22:43;;;;;;;;;;;;;;;8.81;49.63;101188.94;4955757;27;98202;-71
2024/03/18 05:25:12;;;;;;;;;;;;;;;8.82;50.06;101192.44;4947488;27;102635;-75
2024/03/18 05:27:39;;;;;;;;;;;;;;;8.82;50.49;101187.88;4965004;27;98066;-71
2024/03/18 05:30:06;;;;;;;;;;;;;;;8.84;50.25;101182.25;4964016;27;98148;-71
2024/03/18 05:32:32;;;;;;;;;;;;;;;8.87;49.77;101175.59;4989459;27;99234;-75
2024/03/18 05:34:58;;;;;;;;;;;;;;;8.88;49.78;101180.72;4977134;27;98017;-74
2024/03/18 05:37:28;;;;;;;;;;;;;;;8.91;49.95;101184.81;4958624;27;101786;-75
2024/03/18 05:39:54;;;;;;;;;;;;;;;8.93;50.37;101177.34;4964187;27;97933;-70
2024/03/18 05:42:20;;;;;;;;;;;;;;;8.96;50.18;101177.69;4950014;27;109524;-71
2024/03/18 05:44:46;;;;;;;;;;;;;;;8.99;50.24;101177.19;4963355;27;105383;-71
2024/03/18 05:47:12;;;;;;;;;;;;;;;9.04;50.28;101179.19;4946994;27;98502;-75
2024/03/18 05:49:38;;;;;;;;;;;;;;;9.07;49.33;101175.97;4962486;27;98120;-71
2024/03/18 05:52:04;;;;;;;;;;;;;;;9.12;49.74;101178.78;4956656;28;111317;-75
2024/03/18 05:54:30;;;;;;;;;;;;;;;9.15;49.60;101178.28;4958670;27;100740;-71
2024/03/18 05:56:56;;;;;;;;;;;;;;;9.20;49.62;101164.97;4956403;28;107601;-75
2024/03/18 05:59:22;;;;;;;;;;;;;;;9.26;50.08;101169.34;4939859;27;99083;-70
2024/03/18 06:01:48;;;;;;;;;;;;;;;9.31;49.39;101171.31;4952398;27;98276;-75
2024/03/18 06:04:14;;;;;;;;;;;;;;;9.35;49.52;101175.16;4944154;27;106530;-71
2024/03/18 06:06:40;;;;;;;;;;;;;;;9.41;49.86;101174.19;4958880;27;100309;-71
2024/03/18 06:09:07;;;;;;;;;;;;;;;9.48;49.50;101182.13;4969815;27;98459;-71
2024/03/18 06:11:34;;;;;;;;;;;;;;;9.53;49.60;101183.03;4966854;27;99249;-71
2024/03/18 06:14:00;;;;;;;;;;;;;;;9.59;49.91;101184.75;4953786;27;98131;-75
2024/03/18 06:16:26;;;;;;;;;;;;;;;9.66;49.97;101176.50;4953878;27;99891;-75
2024/03/18 06:18:54;;;;;;;;;;;;;;;9.75;49.29;101174.25;4968170;27;123380;-71
2024/03/18 06:21:28;;;;;;;;;;;;;;;9.79;49.33;101173.50;4986257;27;98150;-71
2024/03/18 06:24:05;;;;;;;;;;;;;;;9.86;49.79;101181.41;4985960;27;99602;-71
2024/03/18 06:26:31;;;;;;;;;;;;;;;9.93;49.51;101179.34;4985472;27;98019;-75
2024/03/18 06:28:57;;;;;;;;;;;;;;;9.99;49.71;101181.09;4954846;27;108272;-71
2024/03/18 06:31:23;;;;;;;;;;;;;;;10.06;49.69;101181.75;4957301;27;98510;-75
2024/03/18 06:33:50;;;;;;;;;;;;;;;10.12;49.67;101177.22;4984623;27;98437;-75
2024/03/18 06:36:16;;;;;;;;;;;;;;;10.17;49.68;101176.47;4977759;27;97927;-71
2024/03/18 06:38:42;;;;;;;;;;;;;;;10.21;49.21;101177.63;4980840;27;98435;-75
2024/03/18 06:41:11;;;;;;;;;;;;;;;10.25;49.29;101174.22;4983683;27;98655;-72
2024/03/18 06:43:37;;;;;;;;;;;;;;;10.30;49.42;101170.78;4995397;27;98496;-71
2024/03/18 06:46:05;;;;;;;;;;;;;;;10.34;49.57;101166.53;4982346;27;103340;-71
2024/03/18 06:48:32;;;;;;;;;;;;;;;10.42;49.24;101165.28;4968799;27;98288;-75
2024/03/18 06:50:58;;;;;;;;;;;;;;;10.48;49.20;101164.28;4988974;27;99910;-74
2024/03/18 06:53:24;;;;;;;;;;;;;;;10.55;49.25;101163.03;4980076;27;130592;-76
2024/03/18 06:55:51;;;;;;;;;;;;;;;10.61;49.49;101160.41;4985381;27;98033;-71
2024/03/18 06:58:21;;;;;;;;;;;;;;;10.67;49.42;101156.72;4961276;27;98123;-71
2024/03/18 07:00:47;;;;;;;;;;;;;;;10.74;49.28;101154.66;4972739;27;98119;-71
2024/03/18 07:03:13;;;;;;;;;;;;;;;10.80;49.48;101156.31;4982947;27;99465;-75
2024/03/18 07:05:39;;;;;;;;;;;;;;;10.90;49.22;101161.03;4982667;27;98468;-71
2024/03/18 07:08:05;;;;;;;;;;;;;;;10.97;48.87;101157.06;4994895;27;111491;-71
2024/03/18 07:10:31;;;;;;;;;;;;;;;11.06;49.00;101150.16;4985382;27;98202;-71
2024/03/18 07:12:57;;;;;;;;;;;;;;;11.12;49.14;101142.09;4961342;27;98295;-75
2024/03/18 07:15:23;;;;;;;;;;;;;;;11.20;49.06;101145.16;4981684;27;98647;-71
2024/03/18 07:17:49;;;;;;;;;;;;;;;11.29;49.07;101143.63;4959638;27;98306;-75
2024/03/18 07:20:15;;;;;;;;;;;;;;;11.39;48.94;101142.91;4980462;27;103248;-75
2024/03/18 07:22:41;;;;;;;;;;;;;;;11.50;48.91;101147.31;4959551;27;98789;-75
2024/03/18 07:25:11;;;;;;;;;;;;;;;11.61;48.83;101137.44;4978309;27;97936;-71
2024/03/18 07:27:38;;;;;;;;;;;;;;;11.74;48.73;101136.97;4980636;27;97887;-71
2024/03/18 07:30:05;;;;;;;;;;;;;;;11.88;48.52;101142.00;4993307;27;98418;-75
2024/03/18 07:32:31;;;;;;;;;;;;;;;12.00;48.58;101129.91;4997806;27;98856;-71
2024/03/18 07:34:57;;;;;;;;;;;;;;;12.19;48.63;101129.50;4980857;27;99234;-75
2024/03/18 07:37:23;;;;;;;;;;;;;;;12.37;48.24;101129.03;4977735;27;98170;-71
2024/03/18 07:39:49;;;;;;;;;;;;;;;12.60;48.32;101130.47;4963197;27;100099;-71
2024/03/18 07:42:15;;;;;;;;;;;;;;;12.80;48.25;101129.72;4977307;27;98084;-72
2024/03/18 07:44:42;;;;;;;;;;;;;;;13.03;47.86;101115.72;4978902;27;98499;-71
2024/03/18 07:47:08;;;;;;;;;;;;;;;13.24;48.04;101122.03;4957469;27;118314;-71
2024/03/18 07:49:38;;;;;;;;;;;;;;;13.47;47.60;101115.25;4981448;27;98218;-75
2024/03/18 07:52:04;;;;;;;;;;;;;;;13.72;47.59;101116.34;4954487;27;98255;-75
2024/03/18 07:54:31;;;;;;;;;;;;;;;13.98;47.43;101119.81;4980919;27;98420;-71
2024/03/18 07:56:57;;;;;;;;;;;;;;;14.25;47.20;101117.56;4957626;27;98000;-75
2024/03/18 07:59:23;;;;;;;;;;;;;;;14.62;46.67;101118.28;4967717;27;99138;-71
2024/03/18 08:01:49;;;;;;;;;;;;;;;15.03;46.97;101118.88;4962517;27;116106;-75
2024/03/18 08:04:16;;;;;;;;;;;;;;;15.41;46.58;101111.81;4979753;27;113445;-75
2024/03/18 08:06:46;;;;;;;;;;;;;;;15.85;46.38;101110.91;4983772;27;102948;-71
2024/03/18 08:09:15;;;;;;;;;;;;;;;16.35;46.12;101110.66;4959265;27;99069;-71
2024/03/18 08:11:42;;;;;;;;;;;;;;;16.90;45.77;101109.16;4962400;27;98033;-71
2024/03/18 08:14:08;;;;;;;;;;;;;;;17.63;45.41;101107.72;4981677;27;116076;-75
2024/03/18 08:16:35;;;;;;;;;;;;;;;18.60;44.53;101105.88;4981934;27;98114;-75
2024/03/18 08:19:03;;;;;;;;;;;;;;;18.92;44.70;101108.78;4960371;27;98375;-72
2024/03/18 08:21:31;;;;;;;;;;;;;;;20.28;43.67;101111.09;4963884;27;98333;-72
2024/03/18 08:23:58;;;;;;;;;;;;;;;21.68;42.84;101110.88;4975878;27;99312;-77
2024/03/18 08:26:24;;;;;;;;;;;;;;;23.05;41.72;101106.97;4978753;27;98257;-75
2024/03/18 08:28:50;;;;;;;;;;;;;;;24.04;41.52;101119.09;4967847;27;98185;-75
2024/03/18 08:31:17;;;;;;;;;;;;;;;25.28;40.99;101111.16;4982949;27;98126;-71
2024/03/18 08:33:44;;;;;;;;;;;;;;;26.58;40.30;101122.38;4986364;27;99403;-75
2024/03/18 08:36:12;;;;;;;;;;;;;;;27.80;39.63;101119.34;4982750;27;100185;-72
2024/03/18 08:38:38;;;;;;;;;;;;;;;28.52;39.92;101115.75;4966544;27;98024;-75
2024/03/18 08:41:07;;;;;;;;;;;;;;;29.27;39.57;101113.97;4967911;27;100025;-76
2024/03/18 08:43:33;;;;;;;;;;;;;;;30.09;39.32;101109.22;4987177;27;98368;-72
2024/03/18 08:46:05;;;;;;;;;;;;;;;30.46;39.58;101103.56;4987093;27;98052;-75
2024/03/18 08:48:32;;;;;;;;;;;;;;;30.46;39.74;101109.13;4986229;27;98407;-75
2024/03/18 08:50:59;;;;;;;;;;;;;;;30.24;40.46;101099.03;4982035;27;98021;-72
2024/03/18 08:53:26;;;;;;;;;;;;;;;30.26;40.94;101091.09;4981538;27;98354;-75
2024/03/18 08:55:54;;;;;;;;;;;;;;;30.20;41.20;101087.91;4984400;27;99304;-72
2024/03/18 08:58:21;;;;;;;;;;;;;;;30.06;41.48;101090.53;4973972;27;99010;-76
2024/03/18 09:00:51;;;;;;;;;;;;;;;29.96;42.01;101091.25;4967342;27;99889;-76
2024/03/18 09:03:17;;;;;;;;;;;;;;;29.85;42.13;101077.28;4979688;27;98037;-76
2024/03/18 09:05:43;;;;;;;;;;;;;;;29.79;42.64;101079.63;4985847;27;98257;-76
2024/03/18 09:08:10;;;;;;;;;;;;;;;29.76;42.66;101076.81;4982652;27;98398;-74
2024/03/18 09:10:38;;;;;;;;;;;;;;;29.70;42.98;101073.56;4980653;27;98486;-74
2024/03/18 09:13:05;;;;;;;;;;;;;;;29.71;43.06;101072.41;4983373;27;98506;-73
2024/03/18 09:15:33;;;;;;;;;;;;;;;29.80;43.02;101072.09;4965932;27;98618;-75
2024/03/18 09:18:01;;;;;;;;;;;;;;;29.94;43.09;101072.19;4983825;27;98115;-74
2024/03/18 09:20:28;;;;;;;;;;;;;;;30.14;43.21;101069.16;4982927;27;97943;-74
2024/03/18 09:22:54;;;;;;;;;;;;;;;30.32;43.21;101068.13;4998310;27;97987;-74
2024/03/18 09:25:21;;;;;;;;;;;;;;;30.54;43.14;101062.69;4981035;27;98021;-70
2024/03/18 09:27:48;;;;;;;;;;;;;;;30.72;43.16;101059.97;4966291;27;98135;-71
2024/03/18 09:30:16;;;;;;;;;;;;;;;30.92;43.32;101066.06;4970380;27;98246;-73
2024/03/18 09:32:43;;;;;;;;;;;;;;;31.12;43.30;101075.66;4979376;27;99609;-70
2024/03/18 09:35:10;;;;;;;;;;;;;;;31.37;43.45;101070.19;4983922;27;98118;-70
2024/03/18 09:37:38;;;;;;;;;;;;;;;31.63;42.98;101068.22;4974294;27;98060;-74
2024/03/18 09:40:06;;;;;;;;;;;;;;;31.91;43.15;101064.66;4966066;27;98226;-74
2024/03/18 09:42:33;;;;;;;;;;;;;;;32.18;43.11;101060.25;4979532;27;99598;-71
2024/03/18 09:45:01;;;;;;;;;;;;;;;32.45;42.68;101059.81;4979294;27;98080;-71
2024/03/18 09:47:27;;;;;;;;;;;;;;;32.71;43.25;101059.31;4964552;27;98230;-74
2024/03/18 09:49:54;;;;;;;;;;;;;;;32.98;42.67;101048.47;4984229;27;98424;-72
2024/03/18 09:52:21;;;;;;;;;;;;;;;33.25;42.87;101053.50;4982150;27;98109;-73
2024/03/18 09:54:49;;;;;;;;;;;;;;;33.53;43.05;101054.53;4969268;27;98253;-70
2024/03/18 09:57:28;;;;;;;;;;;;;;;33.80;43.00;101046.31;4982240;27;98348;-73
2024/03/18 09:59:55;;;;;;;;;;;;;;;34.08;43.04;101036.91;4974910;27;97928;-70
2024/03/18 10:02:22;;;;;;;;;;;;;;;34.36;42.69;101033.00;4967059;27;100682;-70
2024/03/18 10:04:49;;;;;;;;;;;;;;;34.62;42.73;101026.69;4973176;27;98072;-73
2024/03/18 10:07:17;;;;;;;;;;;;;;;34.92;42.55;101025.91;4970708;27;99179;-70
2024/03/18 10:09:47;;;;;;;;;;;;;;;35.23;42.38;101017.47;4982190;27;98098;-70
2024/03/18 10:12:15;;;;;;;;;;;;;;;35.55;42.11;101011.38;4959126;28;98184;-72
2024/03/18 10:14:41;;;;;;;;;;;;;;;35.93;42.11;101002.72;4983992;27;99450;-73
2024/03/18 10:17:18;;;;;;;;;;;;;;;36.24;42.08;101010.97;4953877;27;98724;-69
2024/03/18 10:19:45;;;;;;;;;;;;;;;36.50;42.04;101003.63;4984766;27;97958;-73
2024/03/18 10:22:12;;;;;;;;;;;;;;;36.67;41.75;101005.28;4983291;27;98021;-73
2024/03/18 10:24:42;;;;;;;;;;;;;;;36.82;41.79;101008.53;4997883;27;98358;-69
2024/03/18 10:27:09;;;;;;;;;;;;;;;36.97;41.67;101001.41;4957733;27;99552;-73
2024/03/18 10:29:38;;;;;;;;;;;;;;;37.08;42.10;101001.94;4969216;27;98168;-70
2024/03/18 10:32:05;;;;;;;;;;;;;;;37.15;41.45;100991.78;4974869;27;98159;-74
2024/03/18 10:34:37;;;;;;;;;;;;;;;37.17;41.48;101001.34;4966312;27;98520;-69
2024/03/18 10:37:05;;;;;;;;;;;;;;;37.21;42.08;100995.63;4971952;27;98557;-70
2024/03/18 10:39:56;;;;;;;;;;;;;;;37.25;41.49;100990.72;4967704;27;100291;-73
2024/03/18 10:42:22;;;;;;;;;;;;;;;37.29;41.60;100983.78;4989964;27;98997;-70
2024/03/18 10:45:00;;;;;;;;;;;;;;;37.37;42.00;100989.22;4976544;27;98523;-70
2024/03/18 10:47:27;;;;;;;;;;;;;;;37.44;41.49;100981.44;5000706;27;98242;-70
2024/03/18 10:49:54;;;;;;;;;;;;;;;37.55;41.38;100981.16;4984724;27;98923;-74
2024/03/18 10:52:21;;;;;;;;;;;;;;;37.67;41.37;100974.03;4966951;27;98179;-70
2024/03/18 10:54:48;;;;;;;;;;;;;;;37.77;41.35;100973.75;4982718;27;98365;-69
2024/03/18 10:57:15;;;;;;;;;;;;;;;37.91;41.19;100971.81;4989755;27;98594;-70
2024/03/18 10:59:43;;;;;;;;;;;;;;;38.06;41.43;100964.53;4967847;27;97981;-69
2024/03/18 11:02:12;;;;;;;;;;;;;;;38.06;41.16;100959.69;4974697;27;98325;-69
2024/03/18 11:04:42;;;;;;;;;;;;;;;38.07;41.06;100966.13;4980511;27;98497;-69
2024/03/18 11:07:09;;;;;;;;;;;;;;;38.15;41.54;100959.03;5000043;27;99086;-73
2024/03/18 11:09:39;;;;;;;;;;;;;;;38.33;40.84;100954.94;4968744;27;100752;-70
2024/03/18 11:12:26;;;;;;;;;;;;;;;38.59;40.56;100945.28;4967855;27;98115;-69
2024/03/18 11:15:07;;;;;;;;;;;;;;;38.78;40.66;100946.31;4991233;27;98134;-73
2024/03/18 11:17:40;;;;;;;;;;;;;;;38.83;40.64;100945.00;4982203;27;98661;-73
2024/03/18 11:20:14;;;;;;;;;;;;;;;38.70;40.95;100950.59;4949935;27;99153;-69
2024/03/18 11:22:48;;;;;;;;;;;;;;;38.57;40.91;100947.00;4957994;27;111984;-73
2024/03/18 11:25:16;;;;;;;;;;;;;;;38.36;41.16;100945.59;4927936;27;98217;-69
2024/03/18 11:27:48;;;;;;;;;;;;;;;38.15;41.45;100938.56;4963634;27;97984;-73
2024/03/18 11:30:42;;;;;;;;;;;;;;;37.94;41.00;100940.78;4952618;28;98424;-69
2024/03/18 11:33:12;;;;;;;;;;;;;;;37.62;41.39;100929.59;4973992;27;100025;-74
2024/03/18 11:35:42;;;;;;;;;;;;;;;37.12;41.67;100931.66;4970573;27;98778;-72
2024/03/18 11:38:16;;;;;;;;;;;;;;;36.52;42.05;100939.47;4945782;27;98324;-68
2024/03/18 11:40:43;;;;;;;;;;;;;;;35.92;42.46;100924.63;4973268;27;98453;-70
2024/03/18 11:43:10;;;;;;;;;;;;;;;35.43;42.45;100925.09;4946341;27;98014;-71
2024/03/18 11:45:36;;;;;;;;;;;;;;;35.13;42.69;100921.19;4938955;27;98088;-73
2024/03/18 11:48:05;;;;;;;;;;;;;;;34.98;42.66;100931.03;4939315;27;99630;-73
2024/03/18 11:50:40;;;;;;;;;;;;;;;34.90;42.51;100924.75;4946905;27;99844;-73
2024/03/18 11:53:07;;;;;;;;;;;;;;;34.90;42.29;100921.97;4943434;27;98126;-70
2024/03/18 11:55:36;;;;;;;;;;;;;;;34.89;42.36;100925.16;4967594;27;99494;-70
2024/03/18 11:58:05;;;;;;;;;;;;;;;34.93;42.37;100917.50;4977910;27;98431;-72
2024/03/18 12:00:35;;;;;;;;;;;;;;;34.99;42.23;100915.84;4966170;27;98217;-73
2024/03/18 12:03:02;;;;;;;;;;;;;;;35.05;42.16;100925.34;4968660;27;98099;-69
2024/03/18 12:05:30;;;;;;;;;;;;;;;35.12;42.28;100916.81;4945072;27;98261;-72
2024/03/18 12:07:56;;;;;;;;;;;;;;;35.17;42.22;100910.75;4951512;27;98581;-72
2024/03/18 12:10:23;;;;;;;;;;;;;;;35.23;41.89;100913.06;4969060;27;98011;-69
2024/03/18 12:12:49;;;;;;;;;;;;;;;35.23;42.02;100905.44;4970420;27;98098;-72
2024/03/18 12:15:16;;;;;;;;;;;;;;;35.26;42.05;100901.00;4948196;27;98128;-70
2024/03/18 12:17:43;;;;;;;;;;;;;;;35.08;42.13;100906.91;4948237;28;98152;-69
2024/03/18 12:20:29;;;;;;;;;;;;;;;35.10;42.21;100902.47;4975710;27;98767;-70
2024/03/18 12:23:03;;;;;;;;;;;;;;;35.01;42.30;100904.22;4938001;28;98291;-74
2024/03/18 12:31:23;;;;;;;;;;;;;;;34.60;42.47;100894.03;4930206;28;98412;-70
2024/03/18 12:33:49;;;;;;;;;;;;;;;34.44;42.54;100881.44;4972580;27;98295;-72
2024/03/18 12:36:18;;;;;;;;;;;;;;;34.21;42.68;100886.94;4964404;27;98087;-69
2024/03/18 12:38:49;;;;;;;;;;;;;;;34.06;42.75;100877.94;4969120;27;98203;-70
2024/03/18 12:41:17;;;;;;;;;;;;;;;33.95;43.14;100882.84;4967075;27;98257;-73
2024/03/18 12:43:47;;;;;;;;;;;;;;;33.80;43.02;100887.00;4954242;27;98110;-72
2024/03/18 12:46:17;;;;;;;;;;;;;;;33.65;43.23;100889.97;4962281;27;98458;-73
2024/03/18 12:48:44;;;;;;;;;;;;;;;33.46;43.21;100887.78;4986686;27;98255;-72
2024/03/18 12:51:11;;;;;;;;;;;;;;;33.30;43.40;100891.09;4956394;27;98237;-72